SELYH ESOK-ESKC
Flight info
| Callsign | SELYH |
|---|---|
| Flight time | N/A |
| Altitude | 3000 |
| Route | GA |
| Aircraft | SB39/M-V/N |
Departure
| Time | 2026-04-19 09:40 |
|---|---|
| Airport | Karlstad Airport (ESOK) |
Arrival
| Time | N/A |
|---|---|
| Airport | Uppsala-Sundbro Airfield (ESKC) |
| Time | Latitude | Longitude | Altitude | Speed | Heading |
|---|---|---|---|---|---|
| 2026-04-19 09:35 | 59.44566 | 13.34442 | 333 ft | 0 kts | 262° |
| 2026-04-19 09:38 | 59.44564 | 13.34411 | 333 ft | 6 kts | 262° |
| 2026-04-19 09:38 | 59.44580 | 13.34275 | 335 ft | 15 kts | 296° |
| 2026-04-19 09:38 | 59.44623 | 13.34100 | 335 ft | 3 kts | 295° |
| 2026-04-19 09:38 | 59.44629 | 13.34073 | 333 ft | 2 kts | 295° |
| 2026-04-19 09:39 | 59.44650 | 13.33994 | 335 ft | 11 kts | 304° |
| 2026-04-19 09:39 | 59.44750 | 13.34003 | 333 ft | 22 kts | 27° |
| 2026-04-19 09:39 | 59.44881 | 13.34142 | 332 ft | 20 kts | 34° |
| 2026-04-19 09:39 | 59.44927 | 13.34193 | 331 ft | 2 kts | 319° |
| 2026-04-19 09:40 | 59.44906 | 13.34146 | 331 ft | 11 kts | 204° |
| 2026-04-19 09:40 | 59.44447 | 13.33736 | 338 ft | 139 kts | 205° |
| 2026-04-19 09:40 | 59.42862 | 13.32252 | 1049 ft | 340 kts | 201° |
| 2026-04-19 09:40 | 59.40837 | 13.34600 | 2468 ft | 380 kts | 119° |
| 2026-04-19 09:41 | 59.40611 | 13.36389 | 1022 ft | 307 kts | 54° |
| 2026-04-19 09:41 | 59.42444 | 13.41577 | 1304 ft | 610 kts | 59° |
| 2026-04-19 09:41 | 59.43597 | 13.50077 | 2176 ft | 740 kts | 106° |
| 2026-04-19 09:41 | 59.40813 | 13.52528 | 1340 ft | 345 kts | 211° |
| 2026-04-19 09:42 | 59.40066 | 13.51230 | 3591 ft | 57 kts | 66° |
| 2026-04-19 09:42 | 59.40657 | 13.53573 | 3867 ft | 348 kts | 88° |
| 2026-04-19 09:42 | 59.40504 | 13.60777 | 3148 ft | 664 kts | 96° |
| 2026-04-19 09:42 | 59.39940 | 13.70757 | 3019 ft | 787 kts | 94° |
| 2026-04-19 09:43 | 59.39880 | 13.81762 | 4348 ft | 817 kts | 90° |
| 2026-04-19 09:43 | 59.40036 | 13.92943 | 5026 ft | 841 kts | 89° |
| 2026-04-19 09:43 | 59.40279 | 14.04495 | 5139 ft | 852 kts | 88° |
| 2026-04-19 09:43 | 59.40555 | 14.16155 | 5163 ft | 856 kts | 88° |
| 2026-04-19 09:44 | 59.40941 | 14.27843 | 5168 ft | 856 kts | 86° |
| 2026-04-19 09:44 | 59.41478 | 14.39487 | 5144 ft | 857 kts | 85° |
| 2026-04-19 09:44 | 59.42230 | 14.51111 | 5072 ft | 858 kts | 82° |
| 2026-04-19 09:44 | 59.43305 | 14.62654 | 4819 ft | 859 kts | 81° |
| 2026-04-19 09:45 | 59.44296 | 14.74201 | 4516 ft | 856 kts | 83° |
| 2026-04-19 09:45 | 59.45077 | 14.85778 | 4542 ft | 851 kts | 84° |
| 2026-04-19 09:45 | 59.45757 | 14.97349 | 4868 ft | 850 kts | 85° |
| 2026-04-19 09:45 | 59.46166 | 15.09206 | 26686 ft | 909 kts | 86° |
| 2026-04-19 09:46 | 59.46538 | 15.21873 | 17073 ft | 994 kts | 86° |
| 2026-04-19 09:46 | 59.47127 | 15.36468 | 27633 ft | 1110 kts | 84° |
| 2026-04-19 09:46 | 59.47941 | 15.52237 | 27562 ft | 1186 kts | 83° |
| 2026-04-19 09:46 | 59.48844 | 15.68624 | 21509 ft | 1206 kts | 83° |
| 2026-04-19 09:47 | 59.49708 | 15.84631 | 15787 ft | 1138 kts | 84° |
| 2026-04-19 09:47 | 59.50792 | 15.99702 | 31701 ft | 1127 kts | 80° |
| 2026-04-19 09:47 | 59.52259 | 16.15569 | 23293 ft | 1209 kts | 79° |
| 2026-04-19 09:47 | 59.53731 | 16.31375 | 15163 ft | 1141 kts | 79° |
| 2026-04-19 09:48 | 59.55300 | 16.45780 | 8105 ft | 1029 kts | 74° |
| 2026-04-19 09:48 | 59.57665 | 16.58296 | 5699 ft | 926 kts | 67° |
| 2026-04-19 09:48 | 59.60272 | 16.69511 | 5106 ft | 881 kts | 64° |
| 2026-04-19 09:48 | 59.63091 | 16.80157 | 4413 ft | 868 kts | 62° |
| 2026-04-19 09:49 | 59.65993 | 16.90439 | 3892 ft | 864 kts | 61° |
| 2026-04-19 09:49 | 59.68949 | 17.00784 | 3673 ft | 862 kts | 62° |
| 2026-04-19 09:49 | 59.71893 | 17.11081 | 4104 ft | 857 kts | 61° |
| 2026-04-19 09:49 | 59.74913 | 17.21285 | 4585 ft | 856 kts | 59° |
| 2026-04-19 09:50 | 59.78035 | 17.31341 | 5194 ft | 856 kts | 59° |
| 2026-04-19 09:50 | 59.81130 | 17.41451 | 5747 ft | 859 kts | 59° |
| 2026-04-19 09:50 | 59.84157 | 17.51552 | 6312 ft | 863 kts | 59° |
| 2026-04-19 09:50 | 59.87510 | 17.61528 | 6649 ft | 869 kts | 57° |